sensor_id;sensor_type;location;lat;lon;timestamp;temperature;humidity
2022;DHT22;1015;49.756;6.994;2022-07-09T00:01:19;9.60;99.90
2022;DHT22;1015;49.756;6.994;2022-07-09T00:03:46;9.40;99.90
2022;DHT22;1015;49.756;6.994;2022-07-09T00:06:13;9.30;99.90
2022;DHT22;1015;49.756;6.994;2022-07-09T00:08:40;9.30;99.90
2022;DHT22;1015;49.756;6.994;2022-07-09T00:11:07;9.30;99.90
2022;DHT22;1015;49.756;6.994;2022-07-09T00:13:34;9.30;99.90
2022;DHT22;1015;49.756;6.994;2022-07-09T00:16:03;9.40;99.90
2022;DHT22;1015;49.756;6.994;2022-07-09T00:18:30;9.50;99.90
2022;DHT22;1015;49.756;6.994;2022-07-09T00:20:56;9.50;99.90
2022;DHT22;1015;49.756;6.994;2022-07-09T00:23:23;9.50;99.90
2022;DHT22;1015;49.756;6.994;2022-07-09T00:25:51;9.40;99.90
2022;DHT22;1015;49.756;6.994;2022-07-09T00:28:18;9.20;99.90
2022;DHT22;1015;49.756;6.994;2022-07-09T00:30:45;9.30;99.90
2022;DHT22;1015;49.756;6.994;2022-07-09T00:33:13;9.40;99.90
2022;DHT22;1015;49.756;6.994;2022-07-09T00:35:40;9.20;99.90
2022;DHT22;1015;49.756;6.994;2022-07-09T00:38:07;9.20;99.90
2022;DHT22;1015;49.756;6.994;2022-07-09T00:40:34;9.20;99.90
2022;DHT22;1015;49.756;6.994;2022-07-09T00:43:01;9.30;99.90
2022;DHT22;1015;49.756;6.994;2022-07-09T00:45:28;9.20;99.90
2022;DHT22;1015;49.756;6.994;2022-07-09T00:47:55;9.10;99.90
2022;DHT22;1015;49.756;6.994;2022-07-09T00:50:24;9.30;99.90
2022;DHT22;1015;49.756;6.994;2022-07-09T00:52:51;9.20;99.90
2022;DHT22;1015;49.756;6.994;2022-07-09T00:55:18;9.20;99.90
2022;DHT22;1015;49.756;6.994;2022-07-09T00:57:45;9.40;99.90
2022;DHT22;1015;49.756;6.994;2022-07-09T01:00:13;9.30;99.90
2022;DHT22;1015;49.756;6.994;2022-07-09T01:02:40;9.10;99.90
2022;DHT22;1015;49.756;6.994;2022-07-09T01:05:08;9.00;99.90
2022;DHT22;1015;49.756;6.994;2022-07-09T01:07:36;9.00;99.90
2022;DHT22;1015;49.756;6.994;2022-07-09T01:10:04;9.00;99.90
2022;DHT22;1015;49.756;6.994;2022-07-09T01:12:31;9.00;99.90
2022;DHT22;1015;49.756;6.994;2022-07-09T01:14:58;9.00;99.90
2022;DHT22;1015;49.756;6.994;2022-07-09T01:17:25;8.90;99.90
2022;DHT22;1015;49.756;6.994;2022-07-09T01:19:52;8.90;99.90
2022;DHT22;1015;49.756;6.994;2022-07-09T01:22:21;8.90;99.90
2022;DHT22;1015;49.756;6.994;2022-07-09T01:24:49;8.70;99.90
2022;DHT22;1015;49.756;6.994;2022-07-09T01:27:16;8.80;99.90
2022;DHT22;1015;49.756;6.994;2022-07-09T01:29:43;8.90;99.90
2022;DHT22;1015;49.756;6.994;2022-07-09T01:32:15;9.00;99.90
2022;DHT22;1015;49.756;6.994;2022-07-09T01:34:42;9.10;99.90
2022;DHT22;1015;49.756;6.994;2022-07-09T01:37:09;9.10;99.90
2022;DHT22;1015;49.756;6.994;2022-07-09T01:39:38;8.90;99.90
2022;DHT22;1015;49.756;6.994;2022-07-09T01:42:15;8.90;99.90
2022;DHT22;1015;49.756;6.994;2022-07-09T01:44:42;8.70;99.90
2022;DHT22;1015;49.756;6.994;2022-07-09T01:47:09;8.70;99.90
2022;DHT22;1015;49.756;6.994;2022-07-09T01:49:36;8.70;99.90
2022;DHT22;1015;49.756;6.994;2022-07-09T01:52:05;8.60;99.90
2022;DHT22;1015;49.756;6.994;2022-07-09T01:54:32;8.50;99.90
2022;DHT22;1015;49.756;6.994;2022-07-09T01:57:00;8.60;99.90
2022;DHT22;1015;49.756;6.994;2022-07-09T01:59:27;8.70;99.90
2022;DHT22;1015;49.756;6.994;2022-07-09T02:01:54;8.70;99.90
2022;DHT22;1015;49.756;6.994;2022-07-09T02:04:21;8.60;99.90
2022;DHT22;1015;49.756;6.994;2022-07-09T02:06:48;8.50;99.90
2022;DHT22;1015;49.756;6.994;2022-07-09T02:09:15;8.70;99.90
2022;DHT22;1015;49.756;6.994;2022-07-09T02:11:43;8.60;99.90
2022;DHT22;1015;49.756;6.994;2022-07-09T02:14:11;8.70;99.90
2022;DHT22;1015;49.756;6.994;2022-07-09T02:16:38;8.80;99.90
2022;DHT22;1015;49.756;6.994;2022-07-09T02:19:05;8.80;99.90
2022;DHT22;1015;49.756;6.994;2022-07-09T02:21:32;8.80;99.90
2022;DHT22;1015;49.756;6.994;2022-07-09T02:24:00;8.80;99.90
2022;DHT22;1015;49.756;6.994;2022-07-09T02:26:27;8.70;99.90
2022;DHT22;1015;49.756;6.994;2022-07-09T02:28:54;8.60;99.90
2022;DHT22;1015;49.756;6.994;2022-07-09T02:31:23;8.70;99.90
2022;DHT22;1015;49.756;6.994;2022-07-09T02:33:50;8.70;99.90
2022;DHT22;1015;49.756;6.994;2022-07-09T02:36:17;8.80;99.90
2022;DHT22;1015;49.756;6.994;2022-07-09T02:38:44;8.70;99.90
2022;DHT22;1015;49.756;6.994;2022-07-09T02:41:11;8.80;99.90
2022;DHT22;1015;49.756;6.994;2022-07-09T02:43:38;8.90;99.90
2022;DHT22;1015;49.756;6.994;2022-07-09T02:46:08;8.90;99.90
2022;DHT22;1015;49.756;6.994;2022-07-09T02:48:36;8.90;99.90
2022;DHT22;1015;49.756;6.994;2022-07-09T02:51:04;8.80;99.90
2022;DHT22;1015;49.756;6.994;2022-07-09T02:53:31;8.70;99.90
2022;DHT22;1015;49.756;6.994;2022-07-09T02:55:58;8.80;99.90
2022;DHT22;1015;49.756;6.994;2022-07-09T02:58:25;8.80;99.90
2022;DHT22;1015;49.756;6.994;2022-07-09T03:00:52;8.90;99.90
2022;DHT22;1015;49.756;6.994;2022-07-09T03:03:19;9.10;99.90
2022;DHT22;1015;49.756;6.994;2022-07-09T03:05:47;9.10;99.90
2022;DHT22;1015;49.756;6.994;2022-07-09T03:08:14;8.90;99.90
2022;DHT22;1015;49.756;6.994;2022-07-09T03:10:41;8.90;99.90
2022;DHT22;1015;49.756;6.994;2022-07-09T03:13:08;8.90;99.90
2022;DHT22;1015;49.756;6.994;2022-07-09T03:15:35;8.90;99.90
2022;DHT22;1015;49.756;6.994;2022-07-09T03:18:02;9.00;99.90
2022;DHT22;1015;49.756;6.994;2022-07-09T03:20:29;9.00;99.90
2022;DHT22;1015;49.756;6.994;2022-07-09T03:22:57;8.90;99.90
2022;DHT22;1015;49.756;6.994;2022-07-09T03:25:24;8.90;99.90
2022;DHT22;1015;49.756;6.994;2022-07-09T03:27:51;8.90;99.90
2022;DHT22;1015;49.756;6.994;2022-07-09T03:30:18;9.00;99.90
2022;DHT22;1015;49.756;6.994;2022-07-09T03:32:45;8.90;99.90
2022;DHT22;1015;49.756;6.994;2022-07-09T03:35:12;8.90;99.90
2022;DHT22;1015;49.756;6.994;2022-07-09T03:37:39;9.00;99.90
2022;DHT22;1015;49.756;6.994;2022-07-09T03:40:09;9.10;99.90
2022;DHT22;1015;49.756;6.994;2022-07-09T03:42:36;9.10;99.90
2022;DHT22;1015;49.756;6.994;2022-07-09T03:45:03;9.10;99.90
2022;DHT22;1015;49.756;6.994;2022-07-09T03:47:30;9.10;99.90
2022;DHT22;1015;49.756;6.994;2022-07-09T03:49:58;9.10;99.90
2022;DHT22;1015;49.756;6.994;2022-07-09T03:52:26;9.20;99.90
2022;DHT22;1015;49.756;6.994;2022-07-09T03:54:53;9.20;99.90
2022;DHT22;1015;49.756;6.994;2022-07-09T03:57:21;9.20;99.90
2022;DHT22;1015;49.756;6.994;2022-07-09T03:59:48;9.30;99.90
2022;DHT22;1015;49.756;6.994;2022-07-09T04:02:15;9.20;99.90
2022;DHT22;1015;49.756;6.994;2022-07-09T04:04:42;9.30;99.90
2022;DHT22;1015;49.756;6.994;2022-07-09T04:07:09;9.40;99.90
2022;DHT22;1015;49.756;6.994;2022-07-09T04:09:36;9.60;99.90
2022;DHT22;1015;49.756;6.994;2022-07-09T04:12:03;9.70;99.90
2022;DHT22;1015;49.756;6.994;2022-07-09T04:14:32;9.70;99.90
2022;DHT22;1015;49.756;6.994;2022-07-09T04:16:59;9.90;99.90
2022;DHT22;1015;49.756;6.994;2022-07-09T04:19:26;10.20;99.90
2022;DHT22;1015;49.756;6.994;2022-07-09T04:21:53;10.70;99.90
2022;DHT22;1015;49.756;6.994;2022-07-09T04:24:20;10.90;99.90
2022;DHT22;1015;49.756;6.994;2022-07-09T04:26:47;11.10;99.90
2022;DHT22;1015;49.756;6.994;2022-07-09T04:29:13;11.30;99.90
2022;DHT22;1015;49.756;6.994;2022-07-09T04:31:42;11.60;99.90
2022;DHT22;1015;49.756;6.994;2022-07-09T04:34:09;12.20;99.90
2022;DHT22;1015;49.756;6.994;2022-07-09T04:36:36;12.90;99.90
2022;DHT22;1015;49.756;6.994;2022-07-09T04:39:03;13.40;99.90
2022;DHT22;1015;49.756;6.994;2022-07-09T04:41:30;13.90;99.90
2022;DHT22;1015;49.756;6.994;2022-07-09T04:43:57;14.50;99.90
2022;DHT22;1015;49.756;6.994;2022-07-09T04:46:24;14.90;99.90
2022;DHT22;1015;49.756;6.994;2022-07-09T04:48:54;15.10;99.90
2022;DHT22;1015;49.756;6.994;2022-07-09T04:51:20;15.60;99.90
2022;DHT22;1015;49.756;6.994;2022-07-09T04:53:47;16.00;99.90
2022;DHT22;1015;49.756;6.994;2022-07-09T04:56:14;16.30;99.90
2022;DHT22;1015;49.756;6.994;2022-07-09T04:58:41;16.50;99.90
2022;DHT22;1015;49.756;6.994;2022-07-09T05:01:17;16.90;99.90
2022;DHT22;1015;49.756;6.994;2022-07-09T05:03:44;17.40;99.90
2022;DHT22;1015;49.756;6.994;2022-07-09T05:06:13;17.40;99.90
2022;DHT22;1015;49.756;6.994;2022-07-09T05:08:40;17.70;99.90
2022;DHT22;1015;49.756;6.994;2022-07-09T05:11:07;18.10;99.90
2022;DHT22;1015;49.756;6.994;2022-07-09T05:13:35;18.60;99.90
2022;DHT22;1015;49.756;6.994;2022-07-09T05:16:03;18.90;99.90
2022;DHT22;1015;49.756;6.994;2022-07-09T05:18:30;18.50;99.90
2022;DHT22;1015;49.756;6.994;2022-07-09T05:20:57;18.20;99.90
2022;DHT22;1015;49.756;6.994;2022-07-09T05:23:26;18.30;99.90
2022;DHT22;1015;49.756;6.994;2022-07-09T05:25:53;18.80;99.90
2022;DHT22;1015;49.756;6.994;2022-07-09T05:28:20;19.20;99.90
2022;DHT22;1015;49.756;6.994;2022-07-09T05:30:47;19.50;99.90
2022;DHT22;1015;49.756;6.994;2022-07-09T05:33:14;19.90;99.90
2022;DHT22;1015;49.756;6.994;2022-07-09T05:35:41;20.30;99.90
2022;DHT22;1015;49.756;6.994;2022-07-09T05:38:08;20.50;99.90
2022;DHT22;1015;49.756;6.994;2022-07-09T05:40:36;20.30;99.90
2022;DHT22;1015;49.756;6.994;2022-07-09T05:43:03;20.30;99.90
2022;DHT22;1015;49.756;6.994;2022-07-09T05:45:30;20.70;99.90
2022;DHT22;1015;49.756;6.994;2022-07-09T05:47:57;21.20;99.90
2022;DHT22;1015;49.756;6.994;2022-07-09T05:50:24;21.70;99.90
2022;DHT22;1015;49.756;6.994;2022-07-09T05:52:51;22.30;99.90
2022;DHT22;1015;49.756;6.994;2022-07-09T05:55:18;22.70;99.90
2022;DHT22;1015;49.756;6.994;2022-07-09T05:57:46;23.10;99.90
2022;DHT22;1015;49.756;6.994;2022-07-09T06:00:13;22.90;99.90
2022;DHT22;1015;49.756;6.994;2022-07-09T06:02:41;22.90;99.90
2022;DHT22;1015;49.756;6.994;2022-07-09T06:05:08;22.70;99.90
2022;DHT22;1015;49.756;6.994;2022-07-09T06:07:35;23.10;99.90
2022;DHT22;1015;49.756;6.994;2022-07-09T06:10:02;23.20;99.90
2022;DHT22;1015;49.756;6.994;2022-07-09T06:12:29;23.80;99.90
2022;DHT22;1015;49.756;6.994;2022-07-09T06:14:57;23.70;99.90
2022;DHT22;1015;49.756;6.994;2022-07-09T06:17:24;23.80;99.90
2022;DHT22;1015;49.756;6.994;2022-07-09T06:19:51;23.80;99.90
2022;DHT22;1015;49.756;6.994;2022-07-09T06:22:18;23.90;99.90
2022;DHT22;1015;49.756;6.994;2022-07-09T06:24:45;24.20;99.90
2022;DHT22;1015;49.756;6.994;2022-07-09T06:27:12;24.50;99.90
2022;DHT22;1015;49.756;6.994;2022-07-09T06:29:39;24.40;99.90
2022;DHT22;1015;49.756;6.994;2022-07-09T06:32:08;23.80;99.90
2022;DHT22;1015;49.756;6.994;2022-07-09T06:34:35;23.90;99.90
2022;DHT22;1015;49.756;6.994;2022-07-09T06:37:02;24.20;99.90
2022;DHT22;1015;49.756;6.994;2022-07-09T06:39:29;23.50;99.90
2022;DHT22;1015;49.756;6.994;2022-07-09T06:42:12;24.00;99.90
2022;DHT22;1015;49.756;6.994;2022-07-09T06:44:39;24.90;99.90
2022;DHT22;1015;49.756;6.994;2022-07-09T06:47:08;24.80;99.90
2022;DHT22;1015;49.756;6.994;2022-07-09T06:49:35;24.40;99.90
2022;DHT22;1015;49.756;6.994;2022-07-09T06:52:02;24.40;99.90
2022;DHT22;1015;49.756;6.994;2022-07-09T06:54:29;23.30;99.90
2022;DHT22;1015;49.756;6.994;2022-07-09T06:56:56;22.90;99.90
2022;DHT22;1015;49.756;6.994;2022-07-09T06:59:23;23.20;99.90
2022;DHT22;1015;49.756;6.994;2022-07-09T07:01:50;23.00;99.90
2022;DHT22;1015;49.756;6.994;2022-07-09T07:04:19;22.10;99.90
2022;DHT22;1015;49.756;6.994;2022-07-09T07:06:46;20.90;99.90
2022;DHT22;1015;49.756;6.994;2022-07-09T07:09:14;20.40;99.90
2022;DHT22;1015;49.756;6.994;2022-07-09T07:11:42;21.50;99.90
2022;DHT22;1015;49.756;6.994;2022-07-09T07:14:09;22.20;99.90
2022;DHT22;1015;49.756;6.994;2022-07-09T07:16:36;22.50;99.90
2022;DHT22;1015;49.756;6.994;2022-07-09T07:19:03;22.90;99.90
2022;DHT22;1015;49.756;6.994;2022-07-09T07:21:31;22.60;99.90
2022;DHT22;1015;49.756;6.994;2022-07-09T07:23:58;21.20;99.90
2022;DHT22;1015;49.756;6.994;2022-07-09T07:26:25;20.60;99.90
2022;DHT22;1015;49.756;6.994;2022-07-09T07:28:52;20.60;99.90
2022;DHT22;1015;49.756;6.994;2022-07-09T07:31:19;20.80;99.90
2022;DHT22;1015;49.756;6.994;2022-07-09T07:33:48;20.90;99.90
2022;DHT22;1015;49.756;6.994;2022-07-09T07:36:15;21.00;99.90
2022;DHT22;1015;49.756;6.994;2022-07-09T07:38:43;20.80;99.90
2022;DHT22;1015;49.756;6.994;2022-07-09T07:41:12;20.90;99.90
2022;DHT22;1015;49.756;6.994;2022-07-09T07:43:39;21.20;99.90
2022;DHT22;1015;49.756;6.994;2022-07-09T07:46:06;21.20;99.90
2022;DHT22;1015;49.756;6.994;2022-07-09T07:48:33;21.60;99.90
2022;DHT22;1015;49.756;6.994;2022-07-09T07:51:01;22.20;99.90
2022;DHT22;1015;49.756;6.994;2022-07-09T07:53:30;22.00;99.90
2022;DHT22;1015;49.756;6.994;2022-07-09T07:56:00;21.00;99.90
2022;DHT22;1015;49.756;6.994;2022-07-09T07:58:27;20.60;99.90
2022;DHT22;1015;49.756;6.994;2022-07-09T08:00:54;19.70;99.90
2022;DHT22;1015;49.756;6.994;2022-07-09T08:03:21;19.70;99.90
2022;DHT22;1015;49.756;6.994;2022-07-09T08:05:48;19.30;99.90
2022;DHT22;1015;49.756;6.994;2022-07-09T08:08:15;19.50;99.90
2022;DHT22;1015;49.756;6.994;2022-07-09T08:10:44;20.50;99.90
2022;DHT22;1015;49.756;6.994;2022-07-09T08:13:13;20.50;99.90
2022;DHT22;1015;49.756;6.994;2022-07-09T08:15:40;21.30;99.90
2022;DHT22;1015;49.756;6.994;2022-07-09T08:18:07;20.50;99.90
2022;DHT22;1015;49.756;6.994;2022-07-09T08:20:38;20.70;99.90
2022;DHT22;1015;49.756;6.994;2022-07-09T08:23:05;21.10;99.90
2022;DHT22;1015;49.756;6.994;2022-07-09T08:25:33;22.00;99.90
2022;DHT22;1015;49.756;6.994;2022-07-09T08:28:00;21.60;99.90
2022;DHT22;1015;49.756;6.994;2022-07-09T08:30:29;21.70;99.90
2022;DHT22;1015;49.756;6.994;2022-07-09T08:32:56;22.20;99.90
2022;DHT22;1015;49.756;6.994;2022-07-09T08:35:23;21.90;99.90
2022;DHT22;1015;49.756;6.994;2022-07-09T08:37:51;21.80;99.90
2022;DHT22;1015;49.756;6.994;2022-07-09T08:40:19;22.00;99.90
2022;DHT22;1015;49.756;6.994;2022-07-09T08:42:47;22.60;99.90
2022;DHT22;1015;49.756;6.994;2022-07-09T08:45:17;22.30;99.90
2022;DHT22;1015;49.756;6.994;2022-07-09T08:47:46;21.10;99.90
2022;DHT22;1015;49.756;6.994;2022-07-09T08:50:13;21.10;99.90
2022;DHT22;1015;49.756;6.994;2022-07-09T08:52:41;21.40;99.90
2022;DHT22;1015;49.756;6.994;2022-07-09T08:55:09;21.30;99.90
2022;DHT22;1015;49.756;6.994;2022-07-09T08:57:36;21.10;99.90
2022;DHT22;1015;49.756;6.994;2022-07-09T09:00:04;20.60;99.90
2022;DHT22;1015;49.756;6.994;2022-07-09T09:02:35;20.90;99.90
2022;DHT22;1015;49.756;6.994;2022-07-09T09:05:10;20.50;99.90
2022;DHT22;1015;49.756;6.994;2022-07-09T09:07:37;21.70;99.90
2022;DHT22;1015;49.756;6.994;2022-07-09T09:10:05;21.50;99.90
2022;DHT22;1015;49.756;6.994;2022-07-09T09:12:32;20.30;99.90
2022;DHT22;1015;49.756;6.994;2022-07-09T09:14:59;21.90;99.90
2022;DHT22;1015;49.756;6.994;2022-07-09T09:17:26;22.90;99.90
2022;DHT22;1015;49.756;6.994;2022-07-09T09:19:53;22.30;99.90
2022;DHT22;1015;49.756;6.994;2022-07-09T09:22:21;21.60;99.90
2022;DHT22;1015;49.756;6.994;2022-07-09T09:24:49;21.50;99.90
2022;DHT22;1015;49.756;6.994;2022-07-09T09:27:16;21.70;99.90
2022;DHT22;1015;49.756;6.994;2022-07-09T09:29:50;20.70;99.90
2022;DHT22;1015;49.756;6.994;2022-07-09T09:32:19;21.70;99.90
2022;DHT22;1015;49.756;6.994;2022-07-09T09:34:49;22.60;99.90
2022;DHT22;1015;49.756;6.994;2022-07-09T09:37:27;23.20;99.90
2022;DHT22;1015;49.756;6.994;2022-07-09T09:39:54;23.00;99.90
2022;DHT22;1015;49.756;6.994;2022-07-09T09:42:23;23.20;99.90
2022;DHT22;1015;49.756;6.994;2022-07-09T09:44:55;22.00;99.90
2022;DHT22;1015;49.756;6.994;2022-07-09T09:47:27;22.70;99.90
2022;DHT22;1015;49.756;6.994;2022-07-09T09:49:59;22.50;99.90
2022;DHT22;1015;49.756;6.994;2022-07-09T09:52:28;22.40;99.90
2022;DHT22;1015;49.756;6.994;2022-07-09T09:54:57;22.90;99.90
2022;DHT22;1015;49.756;6.994;2022-07-09T09:57:25;22.40;99.90
2022;DHT22;1015;49.756;6.994;2022-07-09T09:59:53;22.50;99.90
2022;DHT22;1015;49.756;6.994;2022-07-09T10:02:23;22.70;99.90
2022;DHT22;1015;49.756;6.994;2022-07-09T10:04:52;22.60;99.90
2022;DHT22;1015;49.756;6.994;2022-07-09T10:07:19;21.60;99.90
2022;DHT22;1015;49.756;6.994;2022-07-09T10:09:54;22.50;99.90
2022;DHT22;1015;49.756;6.994;2022-07-09T10:12:26;23.10;99.90
2022;DHT22;1015;49.756;6.994;2022-07-09T10:14:54;23.50;99.90
2022;DHT22;1015;49.756;6.994;2022-07-09T10:17:24;23.90;99.90
2022;DHT22;1015;49.756;6.994;2022-07-09T10:19:53;22.30;99.90
2022;DHT22;1015;49.756;6.994;2022-07-09T10:22:20;23.20;99.90
2022;DHT22;1015;49.756;6.994;2022-07-09T10:24:50;23.00;99.90
2022;DHT22;1015;49.756;6.994;2022-07-09T10:27:19;22.80;99.90
2022;DHT22;1015;49.756;6.994;2022-07-09T10:29:54;23.10;99.90
2022;DHT22;1015;49.756;6.994;2022-07-09T10:32:25;23.10;99.90
2022;DHT22;1015;49.756;6.994;2022-07-09T10:34:58;22.80;99.90
2022;DHT22;1015;49.756;6.994;2022-07-09T10:37:36;23.40;99.90
2022;DHT22;1015;49.756;6.994;2022-07-09T10:40:11;23.30;99.90
2022;DHT22;1015;49.756;6.994;2022-07-09T10:42:41;21.80;99.90
2022;DHT22;1015;49.756;6.994;2022-07-09T10:45:21;23.10;99.90
2022;DHT22;1015;49.756;6.994;2022-07-09T10:47:55;24.40;99.90
2022;DHT22;1015;49.756;6.994;2022-07-09T10:50:23;25.30;99.90
2022;DHT22;1015;49.756;6.994;2022-07-09T10:52:51;24.10;99.90
2022;DHT22;1015;49.756;6.994;2022-07-09T10:55:18;23.50;99.90
2022;DHT22;1015;49.756;6.994;2022-07-09T10:57:47;22.20;99.90
2022;DHT22;1015;49.756;6.994;2022-07-09T11:00:15;23.80;99.90
2022;DHT22;1015;49.756;6.994;2022-07-09T11:02:56;24.30;99.90
2022;DHT22;1015;49.756;6.994;2022-07-09T11:05:24;23.10;99.90
2022;DHT22;1015;49.756;6.994;2022-07-09T11:07:59;23.60;99.90
2022;DHT22;1015;49.756;6.994;2022-07-09T11:10:27;23.80;99.90
2022;DHT22;1015;49.756;6.994;2022-07-09T11:12:56;23.60;99.90
2022;DHT22;1015;49.756;6.994;2022-07-09T11:15:25;23.70;99.90
2022;DHT22;1015;49.756;6.994;2022-07-09T11:17:57;23.40;99.90
2022;DHT22;1015;49.756;6.994;2022-07-09T11:20:25;23.20;99.90
2022;DHT22;1015;49.756;6.994;2022-07-09T11:22:52;23.60;99.90
2022;DHT22;1015;49.756;6.994;2022-07-09T11:25:23;23.90;99.90
2022;DHT22;1015;49.756;6.994;2022-07-09T11:27:51;24.60;99.90
2022;DHT22;1015;49.756;6.994;2022-07-09T11:30:20;24.80;99.90
2022;DHT22;1015;49.756;6.994;2022-07-09T11:32:47;25.00;99.90
2022;DHT22;1015;49.756;6.994;2022-07-09T11:35:24;24.80;99.90
2022;DHT22;1015;49.756;6.994;2022-07-09T11:37:52;24.80;99.90
2022;DHT22;1015;49.756;6.994;2022-07-09T11:40:19;24.70;99.90
2022;DHT22;1015;49.756;6.994;2022-07-09T11:42:46;24.60;99.90
2022;DHT22;1015;49.756;6.994;2022-07-09T11:45:15;24.30;99.90
2022;DHT22;1015;49.756;6.994;2022-07-09T11:47:43;24.20;99.90
2022;DHT22;1015;49.756;6.994;2022-07-09T11:50:12;24.90;99.90
2022;DHT22;1015;49.756;6.994;2022-07-09T11:52:44;25.40;99.90
2022;DHT22;1015;49.756;6.994;2022-07-09T11:55:14;24.80;99.90
2022;DHT22;1015;49.756;6.994;2022-07-09T11:57:51;24.80;99.90
2022;DHT22;1015;49.756;6.994;2022-07-09T12:00:23;25.50;99.90
2022;DHT22;1015;49.756;6.994;2022-07-09T12:02:52;25.70;99.90
2022;DHT22;1015;49.756;6.994;2022-07-09T12:05:27;25.90;99.90
2022;DHT22;1015;49.756;6.994;2022-07-09T12:07:56;26.20;99.90
2022;DHT22;1015;49.756;6.994;2022-07-09T12:10:29;26.20;99.90
2022;DHT22;1015;49.756;6.994;2022-07-09T12:12:58;25.40;99.90
2022;DHT22;1015;49.756;6.994;2022-07-09T12:15:26;25.40;99.90
2022;DHT22;1015;49.756;6.994;2022-07-09T12:17:55;25.00;99.90
2022;DHT22;1015;49.756;6.994;2022-07-09T12:20:23;24.10;99.90
2022;DHT22;1015;49.756;6.994;2022-07-09T12:22:51;23.60;99.90
2022;DHT22;1015;49.756;6.994;2022-07-09T12:25:18;23.90;99.90
2022;DHT22;1015;49.756;6.994;2022-07-09T12:27:46;24.30;99.90
2022;DHT22;1015;49.756;6.994;2022-07-09T12:30:13;24.10;99.90
2022;DHT22;1015;49.756;6.994;2022-07-09T12:32:42;24.30;99.90
2022;DHT22;1015;49.756;6.994;2022-07-09T12:35:10;24.10;99.90
2022;DHT22;1015;49.756;6.994;2022-07-09T12:37:38;24.20;99.90
2022;DHT22;1015;49.756;6.994;2022-07-09T12:40:07;23.50;99.90
2022;DHT22;1015;49.756;6.994;2022-07-09T12:42:35;23.70;99.90
2022;DHT22;1015;49.756;6.994;2022-07-09T12:45:02;24.10;99.90
2022;DHT22;1015;49.756;6.994;2022-07-09T12:47:30;24.40;99.90
2022;DHT22;1015;49.756;6.994;2022-07-09T12:49:57;24.30;99.90
2022;DHT22;1015;49.756;6.994;2022-07-09T12:52:25;24.10;99.90
2022;DHT22;1015;49.756;6.994;2022-07-09T12:54:53;24.40;99.90
2022;DHT22;1015;49.756;6.994;2022-07-09T12:57:20;24.40;99.90
2022;DHT22;1015;49.756;6.994;2022-07-09T12:59:47;24.40;99.90
2022;DHT22;1015;49.756;6.994;2022-07-09T13:02:14;25.10;99.90
2022;DHT22;1015;49.756;6.994;2022-07-09T13:04:41;24.50;99.90
2022;DHT22;1015;49.756;6.994;2022-07-09T13:07:08;25.50;99.90
2022;DHT22;1015;49.756;6.994;2022-07-09T13:09:36;25.80;99.90
2022;DHT22;1015;49.756;6.994;2022-07-09T13:12:04;26.50;99.90
2022;DHT22;1015;49.756;6.994;2022-07-09T13:14:31;26.30;99.90
2022;DHT22;1015;49.756;6.994;2022-07-09T13:16:58;27.00;99.90
2022;DHT22;1015;49.756;6.994;2022-07-09T13:19:25;26.70;99.90
2022;DHT22;1015;49.756;6.994;2022-07-09T13:21:52;24.80;99.90
2022;DHT22;1015;49.756;6.994;2022-07-09T13:24:19;24.80;99.90
2022;DHT22;1015;49.756;6.994;2022-07-09T13:26:47;24.70;99.90
2022;DHT22;1015;49.756;6.994;2022-07-09T13:29:14;24.60;99.90
2022;DHT22;1015;49.756;6.994;2022-07-09T13:31:41;25.00;99.90
2022;DHT22;1015;49.756;6.994;2022-07-09T13:34:08;24.50;99.90
2022;DHT22;1015;49.756;6.994;2022-07-09T13:36:35;25.10;99.90
2022;DHT22;1015;49.756;6.994;2022-07-09T13:39:02;25.80;99.90
2022;DHT22;1015;49.756;6.994;2022-07-09T13:41:29;25.50;99.90
2022;DHT22;1015;49.756;6.994;2022-07-09T13:43:57;25.00;99.90
2022;DHT22;1015;49.756;6.994;2022-07-09T13:46:24;24.00;99.90
2022;DHT22;1015;49.756;6.994;2022-07-09T13:48:51;24.10;99.90
2022;DHT22;1015;49.756;6.994;2022-07-09T13:51:18;24.40;99.90
2022;DHT22;1015;49.756;6.994;2022-07-09T13:53:45;25.00;99.90
2022;DHT22;1015;49.756;6.994;2022-07-09T13:56:12;25.30;99.90
2022;DHT22;1015;49.756;6.994;2022-07-09T13:58:39;25.20;99.90
2022;DHT22;1015;49.756;6.994;2022-07-09T14:01:09;24.70;99.90
2022;DHT22;1015;49.756;6.994;2022-07-09T14:03:36;24.20;99.90
2022;DHT22;1015;49.756;6.994;2022-07-09T14:06:03;24.30;99.90
2022;DHT22;1015;49.756;6.994;2022-07-09T14:08:30;24.20;99.90
2022;DHT22;1015;49.756;6.994;2022-07-09T14:10:57;24.70;99.90
2022;DHT22;1015;49.756;6.994;2022-07-09T14:13:25;24.90;99.90
2022;DHT22;1015;49.756;6.994;2022-07-09T14:15:54;24.60;99.90
2022;DHT22;1015;49.756;6.994;2022-07-09T14:18:23;24.50;99.90
2022;DHT22;1015;49.756;6.994;2022-07-09T14:20:50;24.30;99.90
2022;DHT22;1015;49.756;6.994;2022-07-09T14:23:17;24.50;99.90
2022;DHT22;1015;49.756;6.994;2022-07-09T14:25:44;24.00;99.90
2022;DHT22;1015;49.756;6.994;2022-07-09T14:28:14;24.30;99.90
2022;DHT22;1015;49.756;6.994;2022-07-09T14:30:41;24.40;99.90
2022;DHT22;1015;49.756;6.994;2022-07-09T14:33:08;24.90;99.90
2022;DHT22;1015;49.756;6.994;2022-07-09T14:35:38;24.70;99.90
2022;DHT22;1015;49.756;6.994;2022-07-09T14:38:05;24.80;99.90
2022;DHT22;1015;49.756;6.994;2022-07-09T14:40:32;24.70;99.90
2022;DHT22;1015;49.756;6.994;2022-07-09T14:42:59;24.60;99.90
2022;DHT22;1015;49.756;6.994;2022-07-09T14:45:26;24.60;99.90
2022;DHT22;1015;49.756;6.994;2022-07-09T14:47:53;24.50;99.90
2022;DHT22;1015;49.756;6.994;2022-07-09T14:50:21;24.40;99.90
2022;DHT22;1015;49.756;6.994;2022-07-09T14:52:49;24.20;99.90
2022;DHT22;1015;49.756;6.994;2022-07-09T14:55:16;23.80;99.90
2022;DHT22;1015;49.756;6.994;2022-07-09T14:57:43;24.60;99.90
2022;DHT22;1015;49.756;6.994;2022-07-09T15:00:11;25.00;99.90
2022;DHT22;1015;49.756;6.994;2022-07-09T15:02:38;25.40;99.90
2022;DHT22;1015;49.756;6.994;2022-07-09T15:05:05;25.00;99.90
2022;DHT22;1015;49.756;6.994;2022-07-09T15:07:32;25.00;99.90
2022;DHT22;1015;49.756;6.994;2022-07-09T15:10:03;25.00;99.90
2022;DHT22;1015;49.756;6.994;2022-07-09T15:12:30;24.80;99.90
2022;DHT22;1015;49.756;6.994;2022-07-09T15:14:58;24.30;99.90
2022;DHT22;1015;49.756;6.994;2022-07-09T15:17:25;24.40;99.90
2022;DHT22;1015;49.756;6.994;2022-07-09T15:19:52;23.80;99.90
2022;DHT22;1015;49.756;6.994;2022-07-09T15:22:19;24.60;99.90
2022;DHT22;1015;49.756;6.994;2022-07-09T15:24:46;25.00;99.90
2022;DHT22;1015;49.756;6.994;2022-07-09T15:27:14;25.30;99.90
2022;DHT22;1015;49.756;6.994;2022-07-09T15:29:42;25.50;99.90
2022;DHT22;1015;49.756;6.994;2022-07-09T15:32:09;25.30;99.90
2022;DHT22;1015;49.756;6.994;2022-07-09T15:34:36;24.70;99.90
2022;DHT22;1015;49.756;6.994;2022-07-09T15:37:03;25.70;99.90
2022;DHT22;1015;49.756;6.994;2022-07-09T15:39:31;26.30;99.90
2022;DHT22;1015;49.756;6.994;2022-07-09T15:41:58;25.70;99.90
2022;DHT22;1015;49.756;6.994;2022-07-09T15:44:26;25.00;99.90
2022;DHT22;1015;49.756;6.994;2022-07-09T15:46:53;25.40;99.90
2022;DHT22;1015;49.756;6.994;2022-07-09T15:49:21;26.40;99.90
2022;DHT22;1015;49.756;6.994;2022-07-09T15:51:48;26.20;99.90
2022;DHT22;1015;49.756;6.994;2022-07-09T15:54:15;24.50;99.90
2022;DHT22;1015;49.756;6.994;2022-07-09T15:56:42;23.90;99.90
2022;DHT22;1015;49.756;6.994;2022-07-09T15:59:09;24.20;99.90
2022;DHT22;1015;49.756;6.994;2022-07-09T16:01:37;24.00;99.90
2022;DHT22;1015;49.756;6.994;2022-07-09T16:04:04;23.70;99.90
2022;DHT22;1015;49.756;6.994;2022-07-09T16:06:31;23.70;99.90
2022;DHT22;1015;49.756;6.994;2022-07-09T16:08:59;23.50;99.90
2022;DHT22;1015;49.756;6.994;2022-07-09T16:11:26;23.40;99.90